sensor_id;sensor_type;location;lat;lon;timestamp;P1;durP1;ratioP1;P2;durP2;ratioP2
49440;SDS011;35317;51.978;6.296;2022-10-16T00:04:41;19.25;;;8.32;;
49440;SDS011;35317;51.978;6.296;2022-10-16T00:09:42;18.10;;;7.63;;
49440;SDS011;35317;51.978;6.296;2022-10-16T00:14:43;15.30;;;8.07;;
49440;SDS011;35317;51.978;6.296;2022-10-16T00:19:44;20.73;;;8.48;;
49440;SDS011;35317;51.978;6.296;2022-10-16T00:24:45;20.50;;;7.85;;
49440;SDS011;35317;51.978;6.296;2022-10-16T00:29:49;16.30;;;8.63;;
49440;SDS011;35317;51.978;6.296;2022-10-16T00:34:51;23.67;;;10.85;;
49440;SDS011;35317;51.978;6.296;2022-10-16T00:39:54;19.47;;;10.73;;
49440;SDS011;35317;51.978;6.296;2022-10-16T00:44:57;25.52;;;11.43;;
49440;SDS011;35317;51.978;6.296;2022-10-16T00:49:59;30.23;;;12.00;;
49440;SDS011;35317;51.978;6.296;2022-10-16T00:55:17;22.92;;;11.65;;
49440;SDS011;35317;51.978;6.296;2022-10-16T01:00:20;25.15;;;11.90;;
49440;SDS011;35317;51.978;6.296;2022-10-16T01:05:30;30.17;;;12.95;;
49440;SDS011;35317;51.978;6.296;2022-10-16T01:16:02;27.65;;;14.70;;
49440;SDS011;35317;51.978;6.296;2022-10-16T01:21:22;28.02;;;14.00;;
49440;SDS011;35317;51.978;6.296;2022-10-16T01:32:15;29.27;;;14.40;;
49440;SDS011;35317;51.978;6.296;2022-10-16T01:37:32;23.42;;;12.90;;
49440;SDS011;35317;51.978;6.296;2022-10-16T01:43:33;23.80;;;13.20;;
49440;SDS011;35317;51.978;6.296;2022-10-16T01:48:29;25.60;;;14.43;;
49440;SDS011;35317;51.978;6.296;2022-10-16T01:53:31;21.33;;;12.38;;
49440;SDS011;35317;51.978;6.296;2022-10-16T01:58:33;22.35;;;13.05;;
49440;SDS011;35317;51.978;6.296;2022-10-16T02:03:41;20.50;;;11.95;;
49440;SDS011;35317;51.978;6.296;2022-10-16T02:08:44;20.57;;;11.90;;
49440;SDS011;35317;51.978;6.296;2022-10-16T02:13:46;22.10;;;11.98;;
49440;SDS011;35317;51.978;6.296;2022-10-16T02:18:52;23.48;;;10.95;;
49440;SDS011;35317;51.978;6.296;2022-10-16T02:29:26;16.17;;;8.90;;
49440;SDS011;35317;51.978;6.296;2022-10-16T02:34:27;14.57;;;7.95;;
49440;SDS011;35317;51.978;6.296;2022-10-16T02:39:30;10.83;;;7.10;;
49440;SDS011;35317;51.978;6.296;2022-10-16T02:44:31;10.52;;;6.75;;
49440;SDS011;35317;51.978;6.296;2022-10-16T02:49:32;13.70;;;6.97;;
49440;SDS011;35317;51.978;6.296;2022-10-16T02:54:33;14.88;;;6.00;;
49440;SDS011;35317;51.978;6.296;2022-10-16T02:59:33;7.53;;;5.47;;
49440;SDS011;35317;51.978;6.296;2022-10-16T03:04:34;11.00;;;5.80;;
49440;SDS011;35317;51.978;6.296;2022-10-16T03:09:35;7.75;;;5.10;;
49440;SDS011;35317;51.978;6.296;2022-10-16T03:14:36;7.50;;;4.47;;
49440;SDS011;35317;51.978;6.296;2022-10-16T03:19:36;7.85;;;4.68;;
49440;SDS011;35317;51.978;6.296;2022-10-16T03:24:37;10.80;;;4.68;;
49440;SDS011;35317;51.978;6.296;2022-10-16T03:29:38;8.88;;;5.00;;
49440;SDS011;35317;51.978;6.296;2022-10-16T03:34:38;9.82;;;4.93;;
49440;SDS011;35317;51.978;6.296;2022-10-16T03:39:39;12.95;;;4.85;;
49440;SDS011;35317;51.978;6.296;2022-10-16T03:44:40;11.18;;;5.53;;
49440;SDS011;35317;51.978;6.296;2022-10-16T03:49:41;8.35;;;5.25;;
49440;SDS011;35317;51.978;6.296;2022-10-16T03:54:41;10.80;;;5.25;;
49440;SDS011;35317;51.978;6.296;2022-10-16T03:59:42;8.10;;;5.30;;
49440;SDS011;35317;51.978;6.296;2022-10-16T04:04:43;9.05;;;4.65;;
49440;SDS011;35317;51.978;6.296;2022-10-16T04:09:44;10.20;;;4.68;;
49440;SDS011;35317;51.978;6.296;2022-10-16T04:14:44;6.97;;;4.80;;
49440;SDS011;35317;51.978;6.296;2022-10-16T04:19:45;5.82;;;4.55;;
49440;SDS011;35317;51.978;6.296;2022-10-16T04:24:46;9.90;;;4.93;;
49440;SDS011;35317;51.978;6.296;2022-10-16T04:29:46;8.80;;;4.50;;
49440;SDS011;35317;51.978;6.296;2022-10-16T04:34:47;6.38;;;4.20;;
49440;SDS011;35317;51.978;6.296;2022-10-16T04:39:48;8.38;;;4.88;;
49440;SDS011;35317;51.978;6.296;2022-10-16T04:44:48;7.60;;;4.18;;
49440;SDS011;35317;51.978;6.296;2022-10-16T04:49:49;11.93;;;4.30;;
49440;SDS011;35317;51.978;6.296;2022-10-16T04:54:50;9.45;;;4.47;;
49440;SDS011;35317;51.978;6.296;2022-10-16T04:59:51;9.52;;;4.78;;
49440;SDS011;35317;51.978;6.296;2022-10-16T05:04:51;11.40;;;5.00;;
49440;SDS011;35317;51.978;6.296;2022-10-16T05:09:52;11.15;;;4.47;;
49440;SDS011;35317;51.978;6.296;2022-10-16T05:14:53;6.53;;;4.40;;
49440;SDS011;35317;51.978;6.296;2022-10-16T05:19:58;6.90;;;4.63;;
49440;SDS011;35317;51.978;6.296;2022-10-16T05:24:59;9.73;;;4.75;;
49440;SDS011;35317;51.978;6.296;2022-10-16T05:30:00;9.48;;;4.95;;
49440;SDS011;35317;51.978;6.296;2022-10-16T05:35:00;14.23;;;5.93;;
49440;SDS011;35317;51.978;6.296;2022-10-16T05:40:01;10.45;;;5.65;;
49440;SDS011;35317;51.978;6.296;2022-10-16T05:45:04;11.77;;;5.82;;
49440;SDS011;35317;51.978;6.296;2022-10-16T05:50:07;11.98;;;5.40;;
49440;SDS011;35317;51.978;6.296;2022-10-16T05:55:08;10.07;;;5.70;;
49440;SDS011;35317;51.978;6.296;2022-10-16T06:00:09;8.63;;;5.72;;
49440;SDS011;35317;51.978;6.296;2022-10-16T06:05:10;16.98;;;6.93;;
49440;SDS011;35317;51.978;6.296;2022-10-16T06:10:11;14.00;;;6.03;;
49440;SDS011;35317;51.978;6.296;2022-10-16T06:15:12;9.18;;;6.32;;
49440;SDS011;35317;51.978;6.296;2022-10-16T06:20:13;13.80;;;6.40;;
49440;SDS011;35317;51.978;6.296;2022-10-16T06:25:13;11.52;;;6.32;;
49440;SDS011;35317;51.978;6.296;2022-10-16T06:30:14;13.88;;;6.40;;
49440;SDS011;35317;51.978;6.296;2022-10-16T06:35:15;13.00;;;6.75;;
49440;SDS011;35317;51.978;6.296;2022-10-16T06:40:16;14.35;;;6.53;;
49440;SDS011;35317;51.978;6.296;2022-10-16T06:45:16;9.50;;;5.57;;
49440;SDS011;35317;51.978;6.296;2022-10-16T06:50:17;11.40;;;5.78;;
49440;SDS011;35317;51.978;6.296;2022-10-16T06:55:18;13.00;;;5.78;;
49440;SDS011;35317;51.978;6.296;2022-10-16T07:00:19;14.15;;;5.78;;
49440;SDS011;35317;51.978;6.296;2022-10-16T07:05:19;8.00;;;4.85;;
49440;SDS011;35317;51.978;6.296;2022-10-16T07:10:20;11.18;;;5.05;;
49440;SDS011;35317;51.978;6.296;2022-10-16T07:15:24;7.95;;;4.85;;
49440;SDS011;35317;51.978;6.296;2022-10-16T07:20:25;10.23;;;4.35;;
49440;SDS011;35317;51.978;6.296;2022-10-16T07:25:26;8.55;;;3.95;;
49440;SDS011;35317;51.978;6.296;2022-10-16T07:30:29;11.30;;;4.63;;
49440;SDS011;35317;51.978;6.296;2022-10-16T07:35:30;11.00;;;3.90;;
49440;SDS011;35317;51.978;6.296;2022-10-16T07:40:30;5.30;;;3.30;;
49440;SDS011;35317;51.978;6.296;2022-10-16T07:45:31;8.52;;;3.20;;
49440;SDS011;35317;51.978;6.296;2022-10-16T07:50:32;6.05;;;2.70;;
49440;SDS011;35317;51.978;6.296;2022-10-16T07:55:32;5.10;;;2.55;;
49440;SDS011;35317;51.978;6.296;2022-10-16T08:00:33;5.95;;;2.25;;
49440;SDS011;35317;51.978;6.296;2022-10-16T08:05:36;4.30;;;2.67;;
49440;SDS011;35317;51.978;6.296;2022-10-16T08:10:36;7.53;;;3.03;;
49440;SDS011;35317;51.978;6.296;2022-10-16T08:15:38;7.20;;;2.50;;
49440;SDS011;35317;51.978;6.296;2022-10-16T08:20:41;6.65;;;3.00;;
49440;SDS011;35317;51.978;6.296;2022-10-16T08:25:42;9.48;;;3.00;;
49440;SDS011;35317;51.978;6.296;2022-10-16T08:30:43;5.68;;;2.90;;
49440;SDS011;35317;51.978;6.296;2022-10-16T08:35:53;6.40;;;3.13;;
49440;SDS011;35317;51.978;6.296;2022-10-16T08:40:55;7.82;;;3.40;;
49440;SDS011;35317;51.978;6.296;2022-10-16T08:52:00;4.80;;;2.67;;
49440;SDS011;35317;51.978;6.296;2022-10-16T08:57:07;5.82;;;2.65;;
49440;SDS011;35317;51.978;6.296;2022-10-16T09:07:39;8.07;;;2.63;;
49440;SDS011;35317;51.978;6.296;2022-10-16T09:13:03;8.65;;;3.30;;
49440;SDS011;35317;51.978;6.296;2022-10-16T09:18:32;8.30;;;2.47;;
49440;SDS011;35317;51.978;6.296;2022-10-16T09:23:45;4.88;;;2.20;;
49440;SDS011;35317;51.978;6.296;2022-10-16T09:28:47;7.93;;;2.47;;
49440;SDS011;35317;51.978;6.296;2022-10-16T09:33:49;7.32;;;2.30;;
49440;SDS011;35317;51.978;6.296;2022-10-16T09:39:05;6.10;;;2.42;;
49440;SDS011;35317;51.978;6.296;2022-10-16T09:44:25;8.63;;;2.27;;
49440;SDS011;35317;51.978;6.296;2022-10-16T09:49:29;4.72;;;1.63;;
49440;SDS011;35317;51.978;6.296;2022-10-16T09:54:31;8.05;;;2.10;;
49440;SDS011;35317;51.978;6.296;2022-10-16T09:59:32;8.80;;;2.63;;
49440;SDS011;35317;51.978;6.296;2022-10-16T10:04:48;8.95;;;2.30;;
49440;SDS011;35317;51.978;6.296;2022-10-16T10:09:54;11.32;;;2.40;;
49440;SDS011;35317;51.978;6.296;2022-10-16T10:15:13;16.13;;;2.78;;
49440;SDS011;35317;51.978;6.296;2022-10-16T10:36:34;5.70;;;1.70;;
49440;SDS011;35317;51.978;6.296;2022-10-16T10:52:34;9.00;;;2.25;;
49440;SDS011;35317;51.978;6.296;2022-10-16T11:03:26;10.88;;;2.30;;
49440;SDS011;35317;51.978;6.296;2022-10-16T11:13:45;8.60;;;1.67;;
49440;SDS011;35317;51.978;6.296;2022-10-16T11:29:48;10.57;;;1.88;;
49440;SDS011;35317;51.978;6.296;2022-10-16T11:35:02;19.45;;;2.72;;
49440;SDS011;35317;51.978;6.296;2022-10-16T11:40:19;14.43;;;2.20;;
49440;SDS011;35317;51.978;6.296;2022-10-16T11:45:33;12.68;;;2.03;;
49440;SDS011;35317;51.978;6.296;2022-10-16T11:50:43;11.25;;;2.33;;
49440;SDS011;35317;51.978;6.296;2022-10-16T11:55:53;11.60;;;2.00;;
49440;SDS011;35317;51.978;6.296;2022-10-16T12:16:26;16.30;;;2.00;;
49440;SDS011;35317;51.978;6.296;2022-10-16T12:21:30;9.07;;;2.15;;
49440;SDS011;35317;51.978;6.296;2022-10-16T12:26:37;10.02;;;2.05;;
49440;SDS011;35317;51.978;6.296;2022-10-16T12:31:45;9.85;;;2.15;;
49440;SDS011;35317;51.978;6.296;2022-10-16T12:36:47;8.93;;;2.15;;
49440;SDS011;35317;51.978;6.296;2022-10-16T12:41:59;9.55;;;1.80;;
49440;SDS011;35317;51.978;6.296;2022-10-16T12:47:03;13.48;;;1.65;;
49440;SDS011;35317;51.978;6.296;2022-10-16T12:52:22;11.57;;;2.33;;
49440;SDS011;35317;51.978;6.296;2022-10-16T13:14:11;10.48;;;2.47;;
49440;SDS011;35317;51.978;6.296;2022-10-16T13:31:00;9.60;;;2.08;;
49440;SDS011;35317;51.978;6.296;2022-10-16T13:36:02;7.03;;;1.67;;
49440;SDS011;35317;51.978;6.296;2022-10-16T13:41:11;8.60;;;1.77;;
49440;SDS011;35317;51.978;6.296;2022-10-16T13:46:23;10.63;;;2.03;;
49440;SDS011;35317;51.978;6.296;2022-10-16T13:51:25;13.75;;;2.10;;
49440;SDS011;35317;51.978;6.296;2022-10-16T13:56:28;16.52;;;2.20;;
49440;SDS011;35317;51.978;6.296;2022-10-16T14:01:40;14.18;;;1.52;;
49440;SDS011;35317;51.978;6.296;2022-10-16T14:06:45;10.30;;;1.77;;
49440;SDS011;35317;51.978;6.296;2022-10-16T14:11:56;10.23;;;2.38;;
49440;SDS011;35317;51.978;6.296;2022-10-16T14:17:03;6.40;;;1.35;;
49440;SDS011;35317;51.978;6.296;2022-10-16T14:22:04;7.78;;;1.50;;
49440;SDS011;35317;51.978;6.296;2022-10-16T14:27:33;9.52;;;1.60;;
49440;SDS011;35317;51.978;6.296;2022-10-16T14:32:36;9.38;;;1.67;;
49440;SDS011;35317;51.978;6.296;2022-10-16T14:37:53;11.90;;;2.20;;
49440;SDS011;35317;51.978;6.296;2022-10-16T14:42:56;10.32;;;2.00;;
49440;SDS011;35317;51.978;6.296;2022-10-16T14:48:02;11.95;;;2.55;;
49440;SDS011;35317;51.978;6.296;2022-10-16T14:53:13;10.23;;;1.65;;
49440;SDS011;35317;51.978;6.296;2022-10-16T14:58:18;9.90;;;1.70;;
49440;SDS011;35317;51.978;6.296;2022-10-16T15:03:21;9.98;;;1.88;;
49440;SDS011;35317;51.978;6.296;2022-10-16T15:08:22;6.65;;;1.50;;
49440;SDS011;35317;51.978;6.296;2022-10-16T15:13:23;12.10;;;1.95;;
49440;SDS011;35317;51.978;6.296;2022-10-16T15:18:24;15.38;;;1.85;;
49440;SDS011;35317;51.978;6.296;2022-10-16T15:23:24;6.82;;;2.13;;
49440;SDS011;35317;51.978;6.296;2022-10-16T15:28:25;15.75;;;3.13;;
49440;SDS011;35317;51.978;6.296;2022-10-16T15:33:27;10.70;;;2.88;;
49440;SDS011;35317;51.978;6.296;2022-10-16T15:38:32;11.23;;;2.58;;
49440;SDS011;35317;51.978;6.296;2022-10-16T15:43:33;12.68;;;2.40;;
49440;SDS011;35317;51.978;6.296;2022-10-16T15:48:34;9.43;;;2.55;;
49440;SDS011;35317;51.978;6.296;2022-10-16T15:53:35;13.20;;;4.25;;
49440;SDS011;35317;51.978;6.296;2022-10-16T15:58:36;16.73;;;3.47;;
49440;SDS011;35317;51.978;6.296;2022-10-16T16:03:37;14.48;;;2.80;;
49440;SDS011;35317;51.978;6.296;2022-10-16T16:08:41;10.75;;;4.10;;
49440;SDS011;35317;51.978;6.296;2022-10-16T16:13:43;12.63;;;3.83;;
49440;SDS011;35317;51.978;6.296;2022-10-16T16:18:44;12.32;;;3.13;;
49440;SDS011;35317;51.978;6.296;2022-10-16T16:23:44;9.63;;;2.28;;
49440;SDS011;35317;51.978;6.296;2022-10-16T16:28:45;15.10;;;3.25;;
49440;SDS011;35317;51.978;6.296;2022-10-16T16:33:46;11.35;;;3.05;;
49440;SDS011;35317;51.978;6.296;2022-10-16T16:38:47;8.10;;;3.42;;
49440;SDS011;35317;51.978;6.296;2022-10-16T16:43:48;19.63;;;5.07;;
49440;SDS011;35317;51.978;6.296;2022-10-16T16:48:51;16.13;;;3.83;;
49440;SDS011;35317;51.978;6.296;2022-10-16T16:53:53;12.55;;;4.40;;
49440;SDS011;35317;51.978;6.296;2022-10-16T16:58:55;17.60;;;5.45;;
49440;SDS011;35317;51.978;6.296;2022-10-16T17:03:57;17.73;;;5.50;;
49440;SDS011;35317;51.978;6.296;2022-10-16T17:09:00;21.42;;;5.32;;
49440;SDS011;35317;51.978;6.296;2022-10-16T17:14:02;14.27;;;3.77;;
49440;SDS011;35317;51.978;6.296;2022-10-16T17:19:07;12.90;;;3.53;;
49440;SDS011;35317;51.978;6.296;2022-10-16T17:24:11;14.70;;;3.95;;
49440;SDS011;35317;51.978;6.296;2022-10-16T17:29:12;12.95;;;3.53;;
49440;SDS011;35317;51.978;6.296;2022-10-16T17:34:14;12.35;;;3.33;;
49440;SDS011;35317;51.978;6.296;2022-10-16T17:39:16;14.68;;;3.90;;
49440;SDS011;35317;51.978;6.296;2022-10-16T17:44:17;14.40;;;3.75;;
49440;SDS011;35317;51.978;6.296;2022-10-16T17:49:19;11.10;;;3.67;;
49440;SDS011;35317;51.978;6.296;2022-10-16T17:54:20;17.95;;;4.57;;
49440;SDS011;35317;51.978;6.296;2022-10-16T17:59:21;16.88;;;7.32;;
49440;SDS011;35317;51.978;6.296;2022-10-16T18:04:22;34.05;;;13.73;;
49440;SDS011;35317;51.978;6.296;2022-10-16T18:09:23;40.08;;;14.98;;
49440;SDS011;35317;51.978;6.296;2022-10-16T18:14:24;25.95;;;7.05;;
49440;SDS011;35317;51.978;6.296;2022-10-16T18:19:27;20.95;;;7.03;;
49440;SDS011;35317;51.978;6.296;2022-10-16T18:24:28;18.77;;;6.65;;
49440;SDS011;35317;51.978;6.296;2022-10-16T18:29:29;18.40;;;5.10;;
49440;SDS011;35317;51.978;6.296;2022-10-16T18:34:29;15.50;;;4.63;;
49440;SDS011;35317;51.978;6.296;2022-10-16T18:39:30;18.45;;;5.65;;
49440;SDS011;35317;51.978;6.296;2022-10-16T18:44:31;12.43;;;4.85;;
49440;SDS011;35317;51.978;6.296;2022-10-16T18:49:32;15.77;;;5.22;;
49440;SDS011;35317;51.978;6.296;2022-10-16T18:54:32;14.90;;;5.00;;
49440;SDS011;35317;51.978;6.296;2022-10-16T18:59:33;15.35;;;5.65;;
49440;SDS011;35317;51.978;6.296;2022-10-16T19:04:34;16.13;;;4.35;;
49440;SDS011;35317;51.978;6.296;2022-10-16T19:09:35;12.75;;;4.93;;
49440;SDS011;35317;51.978;6.296;2022-10-16T19:14:36;14.07;;;4.32;;
49440;SDS011;35317;51.978;6.296;2022-10-16T19:19:37;13.68;;;4.10;;
49440;SDS011;35317;51.978;6.296;2022-10-16T19:24:37;17.35;;;5.72;;
49440;SDS011;35317;51.978;6.296;2022-10-16T19:29:39;11.40;;;5.18;;
49440;SDS011;35317;51.978;6.296;2022-10-16T19:34:40;14.40;;;5.80;;
49440;SDS011;35317;51.978;6.296;2022-10-16T19:39:40;12.60;;;5.82;;
49440;SDS011;35317;51.978;6.296;2022-10-16T19:44:41;14.90;;;5.75;;
49440;SDS011;35317;51.978;6.296;2022-10-16T19:49:42;22.17;;;5.97;;
49440;SDS011;35317;51.978;6.296;2022-10-16T19:54:42;17.00;;;6.82;;
49440;SDS011;35317;51.978;6.296;2022-10-16T19:59:43;16.02;;;5.90;;
49440;SDS011;35317;51.978;6.296;2022-10-16T20:04:44;16.60;;;5.22;;
49440;SDS011;35317;51.978;6.296;2022-10-16T20:09:45;12.27;;;5.80;;
49440;SDS011;35317;51.978;6.296;2022-10-16T20:14:46;12.50;;;6.28;;
49440;SDS011;35317;51.978;6.296;2022-10-16T20:19:47;15.32;;;6.38;;
49440;SDS011;35317;51.978;6.296;2022-10-16T20:24:47;17.10;;;7.00;;
49440;SDS011;35317;51.978;6.296;2022-10-16T20:29:48;16.42;;;7.25;;
49440;SDS011;35317;51.978;6.296;2022-10-16T20:34:49;12.75;;;6.70;;
49440;SDS011;35317;51.978;6.296;2022-10-16T20:39:50;15.60;;;6.82;;
49440;SDS011;35317;51.978;6.296;2022-10-16T20:44:50;14.07;;;6.55;;
49440;SDS011;35317;51.978;6.296;2022-10-16T20:49:51;13.95;;;7.35;;
49440;SDS011;35317;51.978;6.296;2022-10-16T20:54:54;13.38;;;7.72;;
49440;SDS011;35317;51.978;6.296;2022-10-16T20:59:54;15.10;;;7.28;;
49440;SDS011;35317;51.978;6.296;2022-10-16T21:04:55;13.27;;;6.95;;
49440;SDS011;35317;51.978;6.296;2022-10-16T21:09:56;16.58;;;6.75;;
49440;SDS011;35317;51.978;6.296;2022-10-16T21:14:57;14.25;;;6.60;;
49440;SDS011;35317;51.978;6.296;2022-10-16T21:19:58;13.55;;;7.82;;
49440;SDS011;35317;51.978;6.296;2022-10-16T21:24:59;13.05;;;7.38;;
49440;SDS011;35317;51.978;6.296;2022-10-16T21:29:59;17.90;;;8.35;;
49440;SDS011;35317;51.978;6.296;2022-10-16T21:35:00;13.07;;;7.82;;
49440;SDS011;35317;51.978;6.296;2022-10-16T21:40:01;15.45;;;7.95;;
49440;SDS011;35317;51.978;6.296;2022-10-16T21:45:03;13.48;;;9.05;;
49440;SDS011;35317;51.978;6.296;2022-10-16T21:50:04;12.77;;;8.63;;
49440;SDS011;35317;51.978;6.296;2022-10-16T21:55:05;20.77;;;8.57;;
49440;SDS011;35317;51.978;6.296;2022-10-16T22:00:07;13.70;;;7.95;;
49440;SDS011;35317;51.978;6.296;2022-10-16T22:05:09;17.65;;;9.38;;
49440;SDS011;35317;51.978;6.296;2022-10-16T22:10:09;16.73;;;9.90;;
49440;SDS011;35317;51.978;6.296;2022-10-16T22:15:10;18.98;;;11.38;;
49440;SDS011;35317;51.978;6.296;2022-10-16T22:20:11;19.98;;;10.30;;
49440;SDS011;35317;51.978;6.296;2022-10-16T22:25:11;15.15;;;10.68;;
49440;SDS011;35317;51.978;6.296;2022-10-16T22:30:12;20.00;;;10.90;;
49440;SDS011;35317;51.978;6.296;2022-10-16T22:35:13;20.98;;;11.07;;
49440;SDS011;35317;51.978;6.296;2022-10-16T22:40:14;18.08;;;11.90;;
49440;SDS011;35317;51.978;6.296;2022-10-16T22:45:15;18.42;;;13.00;;
49440;SDS011;35317;51.978;6.296;2022-10-16T22:50:15;18.60;;;13.20;;
49440;SDS011;35317;51.978;6.296;2022-10-16T22:55:16;19.70;;;12.48;;
49440;SDS011;35317;51.978;6.296;2022-10-16T23:00:17;25.95;;;14.02;;
49440;SDS011;35317;51.978;6.296;2022-10-16T23:05:19;19.63;;;11.93;;
49440;SDS011;35317;51.978;6.296;2022-10-16T23:10:20;21.00;;;14.90;;
49440;SDS011;35317;51.978;6.296;2022-10-16T23:15:26;16.08;;;11.73;;
49440;SDS011;35317;51.978;6.296;2022-10-16T23:20:27;22.13;;;14.73;;
49440;SDS011;35317;51.978;6.296;2022-10-16T23:25:27;20.23;;;14.07;;
49440;SDS011;35317;51.978;6.296;2022-10-16T23:30:28;21.90;;;12.82;;
49440;SDS011;35317;51.978;6.296;2022-10-16T23:35:29;22.50;;;16.08;;
49440;SDS011;35317;51.978;6.296;2022-10-16T23:40:30;19.40;;;15.00;;
49440;SDS011;35317;51.978;6.296;2022-10-16T23:45:31;20.35;;;14.25;;
49440;SDS011;35317;51.978;6.296;2022-10-16T23:50:32;24.15;;;15.80;;
49440;SDS011;35317;51.978;6.296;2022-10-16T23:55:33;29.42;;;17.80;;
